sensor_id;sensor_type;location;lat;lon;timestamp;pressure;altitude;pressure_sealevel;temperature;humidity
75013;BME280;63567;49.956;20.130;2023-04-05T00:01:07;97569.47;;;-3.06;67.75
75013;BME280;63567;49.956;20.130;2023-04-05T00:03:33;97569.66;;;-3.09;68.36
75013;BME280;63567;49.956;20.130;2023-04-05T00:05:59;97566.25;;;-3.10;68.06
75013;BME280;63567;49.956;20.130;2023-04-05T00:08:26;97564.78;;;-3.14;68.48
75013;BME280;63567;49.956;20.130;2023-04-05T00:10:52;97557.13;;;-3.15;67.98
75013;BME280;63567;49.956;20.130;2023-04-05T00:13:20;97555.22;;;-3.12;67.96
75013;BME280;63567;49.956;20.130;2023-04-05T00:15:47;97557.41;;;-3.20;68.18
75013;BME280;63567;49.956;20.130;2023-04-05T00:18:13;97545.25;;;-3.18;68.23
75013;BME280;63567;49.956;20.130;2023-04-05T00:20:58;97545.53;;;-3.22;68.60
75013;BME280;63567;49.956;20.130;2023-04-05T00:23:23;97545.53;;;-3.22;68.43
75013;BME280;63567;49.956;20.130;2023-04-05T00:25:50;97541.28;;;-3.23;68.22
75013;BME280;63567;49.956;20.130;2023-04-05T00:28:16;97541.47;;;-3.26;68.24
75013;BME280;63567;49.956;20.130;2023-04-05T00:30:41;97539.81;;;-3.27;68.09
75013;BME280;63567;49.956;20.130;2023-04-05T00:33:06;97534.56;;;-3.26;68.30
75013;BME280;63567;49.956;20.130;2023-04-05T00:35:32;97536.31;;;-3.26;68.56
75013;BME280;63567;49.956;20.130;2023-04-05T00:37:57;97537.41;;;-3.31;68.35
75013;BME280;63567;49.956;20.130;2023-04-05T00:40:23;97531.38;;;-3.29;68.22
75013;BME280;63567;49.956;20.130;2023-04-05T00:42:49;97531.44;;;-3.31;68.10
75013;BME280;63567;49.956;20.130;2023-04-05T00:45:14;97529.03;;;-3.34;68.07
75013;BME280;63567;49.956;20.130;2023-04-05T00:47:40;97535.19;;;-3.37;68.55
75013;BME280;63567;49.956;20.130;2023-04-05T00:50:08;97527.38;;;-3.35;68.25
75013;BME280;63567;49.956;20.130;2023-04-05T00:52:34;97540.25;;;-3.35;68.47
75013;BME280;63567;49.956;20.130;2023-04-05T00:55:03;97529.97;;;-3.35;68.34
75013;BME280;63567;49.956;20.130;2023-04-05T00:57:30;97537.88;;;-3.38;68.48
75013;BME280;63567;49.956;20.130;2023-04-05T00:59:58;97536.19;;;-3.39;68.04
75013;BME280;63567;49.956;20.130;2023-04-05T01:02:35;97530.97;;;-3.38;68.41
75013;BME280;63567;49.956;20.130;2023-04-05T01:05:08;97530.22;;;-3.40;68.08
75013;BME280;63567;49.956;20.130;2023-04-05T01:10:44;97532.22;;;-3.45;68.27
75013;BME280;63567;49.956;20.130;2023-04-05T01:13:10;97527.19;;;-3.46;68.01
75013;BME280;63567;49.956;20.130;2023-04-05T01:15:36;97527.25;;;-3.48;68.19
75013;BME280;63567;49.956;20.130;2023-04-05T01:18:01;97524.78;;;-3.49;68.21
75013;BME280;63567;49.956;20.130;2023-04-05T01:20:30;97529.09;;;-3.50;68.47
75013;BME280;63567;49.956;20.130;2023-04-05T01:23:14;97529.03;;;-3.48;68.02
75013;BME280;63567;49.956;20.130;2023-04-05T01:26:03;97533.44;;;-3.51;68.11
75013;BME280;63567;49.956;20.130;2023-04-05T01:28:39;97521.72;;;-3.56;68.82
75013;BME280;63567;49.956;20.130;2023-04-05T01:36:48;97522.66;;;-3.57;68.68
75013;BME280;63567;49.956;20.130;2023-04-05T01:39:16;97520.16;;;-3.59;68.57
75013;BME280;63567;49.956;20.130;2023-04-05T01:41:41;97518.59;;;-3.61;68.87
75013;BME280;63567;49.956;20.130;2023-04-05T01:44:07;97527.69;;;-3.56;68.80
75013;BME280;63567;49.956;20.130;2023-04-05T01:46:32;97521.91;;;-3.59;68.94
75013;BME280;63567;49.956;20.130;2023-04-05T01:48:58;97521.09;;;-3.60;68.19
75013;BME280;63567;49.956;20.130;2023-04-05T01:51:23;97517.66;;;-3.60;68.99
75013;BME280;63567;49.956;20.130;2023-04-05T01:53:49;97518.53;;;-3.60;68.31
75013;BME280;63567;49.956;20.130;2023-04-05T01:56:15;97520.16;;;-3.59;68.55
75013;BME280;63567;49.956;20.130;2023-04-05T01:58:40;97515.84;;;-3.58;68.58
75013;BME280;63567;49.956;20.130;2023-04-05T02:01:06;97515.00;;;-3.59;68.74
75013;BME280;63567;49.956;20.130;2023-04-05T02:03:31;97514.28;;;-3.61;68.78
75013;BME280;63567;49.956;20.130;2023-04-05T02:05:56;97505.66;;;-3.60;68.71
75013;BME280;63567;49.956;20.130;2023-04-05T02:08:22;97511.69;;;-3.61;68.23
75013;BME280;63567;49.956;20.130;2023-04-05T02:10:47;97516.84;;;-3.61;68.98
75013;BME280;63567;49.956;20.130;2023-04-05T02:13:13;97507.38;;;-3.60;68.87
75013;BME280;63567;49.956;20.130;2023-04-05T02:15:38;97497.19;;;-3.62;69.01
75013;BME280;63567;49.956;20.130;2023-04-05T02:18:04;97507.28;;;-3.59;68.79
75013;BME280;63567;49.956;20.130;2023-04-05T02:20:29;97510.69;;;-3.58;68.88
75013;BME280;63567;49.956;20.130;2023-04-05T02:22:55;97511.69;;;-3.61;68.77
75013;BME280;63567;49.956;20.130;2023-04-05T02:25:21;97510.78;;;-3.60;69.17
75013;BME280;63567;49.956;20.130;2023-04-05T02:27:47;97506.47;;;-3.59;68.81
75013;BME280;63567;49.956;20.130;2023-04-05T02:30:13;97507.09;;;-3.56;68.52
75013;BME280;63567;49.956;20.130;2023-04-05T02:32:39;97502.88;;;-3.57;69.05
75013;BME280;63567;49.956;20.130;2023-04-05T02:35:10;97498.75;;;-3.59;69.00
75013;BME280;63567;49.956;20.130;2023-04-05T02:37:36;97496.81;;;-3.56;68.56
75013;BME280;63567;49.956;20.130;2023-04-05T02:40:05;97502.97;;;-3.58;68.26
75013;BME280;63567;49.956;20.130;2023-04-05T02:42:32;97503.69;;;-3.56;68.95
75013;BME280;63567;49.956;20.130;2023-04-05T02:44:57;97496.09;;;-3.58;68.90
75013;BME280;63567;49.956;20.130;2023-04-05T02:47:22;97495.97;;;-3.56;68.58
75013;BME280;63567;49.956;20.130;2023-04-05T02:49:48;97490.94;;;-3.58;68.42
75013;BME280;63567;49.956;20.130;2023-04-05T02:52:14;97497.72;;;-3.57;68.32
75013;BME280;63567;49.956;20.130;2023-04-05T02:54:39;97491.75;;;-3.57;68.34
75013;BME280;63567;49.956;20.130;2023-04-05T02:57:04;97488.25;;;-3.56;68.68
75013;BME280;63567;49.956;20.130;2023-04-05T02:59:30;97488.25;;;-3.56;68.56
75013;BME280;63567;49.956;20.130;2023-04-05T03:01:55;97489.19;;;-3.57;67.73
75013;BME280;63567;49.956;20.130;2023-04-05T03:04:21;97494.16;;;-3.54;67.61
75013;BME280;63567;49.956;20.130;2023-04-05T03:06:46;97487.25;;;-3.54;67.89
75013;BME280;63567;49.956;20.130;2023-04-05T03:09:15;97491.56;;;-3.54;68.36
75013;BME280;63567;49.956;20.130;2023-04-05T03:11:42;97488.09;;;-3.53;67.89
75013;BME280;63567;49.956;20.130;2023-04-05T03:14:07;97490.56;;;-3.52;67.73
75013;BME280;63567;49.956;20.130;2023-04-05T03:16:33;97488.91;;;-3.53;68.12
75013;BME280;63567;49.956;20.130;2023-04-05T03:18:58;97493.13;;;-3.52;68.06
75013;BME280;63567;49.956;20.130;2023-04-05T03:21:24;97489.00;;;-3.54;67.78
75013;BME280;63567;49.956;20.130;2023-04-05T03:23:50;97491.41;;;-3.51;67.81
75013;BME280;63567;49.956;20.130;2023-04-05T03:26:15;97494.88;;;-3.52;68.27
75013;BME280;63567;49.956;20.130;2023-04-05T03:28:44;97499.03;;;-3.49;67.44
75013;BME280;63567;49.956;20.130;2023-04-05T03:31:12;97495.63;;;-3.50;67.67
75013;BME280;63567;49.956;20.130;2023-04-05T03:33:38;97495.81;;;-3.53;67.71
75013;BME280;63567;49.956;20.130;2023-04-05T03:36:04;97488.91;;;-3.53;67.38
75013;BME280;63567;49.956;20.130;2023-04-05T03:38:29;97494.88;;;-3.52;67.54
75013;BME280;63567;49.956;20.130;2023-04-05T03:40:57;97489.72;;;-3.52;66.87
75013;BME280;63567;49.956;20.130;2023-04-05T03:43:23;97490.66;;;-3.53;66.83
75013;BME280;63567;49.956;20.130;2023-04-05T03:45:48;97496.63;;;-3.53;67.36
75013;BME280;63567;49.956;20.130;2023-04-05T03:48:14;97480.25;;;-3.52;66.77
75013;BME280;63567;49.956;20.130;2023-04-05T03:50:44;97486.41;;;-3.54;66.61
75013;BME280;63567;49.956;20.130;2023-04-05T03:53:10;97481.47;;;-3.57;66.65
75013;BME280;63567;49.956;20.130;2023-04-05T03:55:35;97491.03;;;-3.59;67.38
75013;BME280;63567;49.956;20.130;2023-04-05T03:58:00;97496.91;;;-3.57;66.93
75013;BME280;63567;49.956;20.130;2023-04-05T04:00:26;97490.09;;;-3.58;67.21
75013;BME280;63567;49.956;20.130;2023-04-05T04:02:52;97490.94;;;-3.58;67.29
75013;BME280;63567;49.956;20.130;2023-04-05T04:05:18;97482.28;;;-3.57;67.34
75013;BME280;63567;49.956;20.130;2023-04-05T04:07:44;97496.16;;;-3.59;67.39
75013;BME280;63567;49.956;20.130;2023-04-05T04:10:11;97489.63;;;-3.65;67.95
75013;BME280;63567;49.956;20.130;2023-04-05T04:12:37;97488.31;;;-3.72;68.87
75013;BME280;63567;49.956;20.130;2023-04-05T04:15:03;97488.13;;;-3.83;69.81
75013;BME280;63567;49.956;20.130;2023-04-05T04:17:30;97492.03;;;-3.92;70.43
75013;BME280;63567;49.956;20.130;2023-04-05T04:19:57;97496.84;;;-4.02;70.13
75013;BME280;63567;49.956;20.130;2023-04-05T04:22:23;97495.06;;;-4.16;71.05
75013;BME280;63567;49.956;20.130;2023-04-05T04:24:53;97495.56;;;-4.09;71.06
75013;BME280;63567;49.956;20.130;2023-04-05T04:27:19;97496.56;;;-4.11;70.63
75013;BME280;63567;49.956;20.130;2023-04-05T04:29:45;97506.25;;;-4.17;71.31
75013;BME280;63567;49.956;20.130;2023-04-05T04:32:15;97497.63;;;-4.16;71.91
75013;BME280;63567;49.956;20.130;2023-04-05T04:34:41;97497.56;;;-4.14;71.68
75013;BME280;63567;49.956;20.130;2023-04-05T04:37:13;97502.19;;;-4.05;70.99
75013;BME280;63567;49.956;20.130;2023-04-05T04:39:45;97499.34;;;-4.00;71.13
75013;BME280;63567;49.956;20.130;2023-04-05T04:42:11;97504.69;;;-4.03;70.84
75013;BME280;63567;49.956;20.130;2023-04-05T04:44:37;97500.19;;;-4.00;71.72
75013;BME280;63567;49.956;20.130;2023-04-05T04:47:03;97501.00;;;-3.99;72.61
75013;BME280;63567;49.956;20.130;2023-04-05T04:49:37;97498.53;;;-4.01;72.79
75013;BME280;63567;49.956;20.130;2023-04-05T04:52:02;97499.69;;;-4.06;72.47
75013;BME280;63567;49.956;20.130;2023-04-05T04:54:28;97508.81;;;-4.01;72.71
75013;BME280;63567;49.956;20.130;2023-04-05T04:56:53;97501.75;;;-3.97;72.69
75013;BME280;63567;49.956;20.130;2023-04-05T04:59:18;97502.81;;;-3.85;72.07
75013;BME280;63567;49.956;20.130;2023-04-05T05:01:44;97501.63;;;-3.80;72.36
75013;BME280;63567;49.956;20.130;2023-04-05T05:04:10;97507.25;;;-3.73;71.60
75013;BME280;63567;49.956;20.130;2023-04-05T05:06:35;97501.59;;;-3.64;71.06
75013;BME280;63567;49.956;20.130;2023-04-05T05:09:00;97509.31;;;-3.49;70.60
75013;BME280;63567;49.956;20.130;2023-04-05T05:11:26;97496.09;;;-3.43;70.99
75013;BME280;63567;49.956;20.130;2023-04-05T05:13:53;97505.84;;;-3.34;70.44
75013;BME280;63567;49.956;20.130;2023-04-05T05:16:18;97501.91;;;-3.25;70.68
75013;BME280;63567;49.956;20.130;2023-04-05T05:18:45;97510.47;;;-3.11;70.14
75013;BME280;63567;49.956;20.130;2023-04-05T05:21:12;97510.78;;;-3.01;69.58
75013;BME280;63567;49.956;20.130;2023-04-05T05:23:38;97512.31;;;-2.98;69.47
75013;BME280;63567;49.956;20.130;2023-04-05T05:26:03;97511.88;;;-2.91;69.06
75013;BME280;63567;49.956;20.130;2023-04-05T05:28:28;97518.56;;;-2.74;69.20
75013;BME280;63567;49.956;20.130;2023-04-05T05:30:54;97509.00;;;-2.57;68.23
75013;BME280;63567;49.956;20.130;2023-04-05T05:33:19;97507.28;;;-2.44;67.61
75013;BME280;63567;49.956;20.130;2023-04-05T05:35:48;97509.13;;;-2.32;67.10
75013;BME280;63567;49.956;20.130;2023-04-05T05:38:15;97498.50;;;-2.27;66.41
75013;BME280;63567;49.956;20.130;2023-04-05T05:40:41;97502.78;;;-2.13;66.75
75013;BME280;63567;49.956;20.130;2023-04-05T05:43:06;97500.06;;;-1.97;66.41
75013;BME280;63567;49.956;20.130;2023-04-05T05:45:33;97499.66;;;-1.91;65.37
75013;BME280;63567;49.956;20.130;2023-04-05T05:47:58;97490.59;;;-1.84;64.68
75013;BME280;63567;49.956;20.130;2023-04-05T05:50:23;97493.66;;;-1.64;65.47
75013;BME280;63567;49.956;20.130;2023-04-05T05:52:49;97492.94;;;-1.54;65.83
75013;BME280;63567;49.956;20.130;2023-04-05T05:55:14;97487.47;;;-1.36;64.83
75013;BME280;63567;49.956;20.130;2023-04-05T05:57:40;97481.69;;;-1.27;64.03
75013;BME280;63567;49.956;20.130;2023-04-05T06:00:06;97487.44;;;-1.11;64.24
75013;BME280;63567;49.956;20.130;2023-04-05T06:02:35;97487.13;;;-0.93;64.42
75013;BME280;63567;49.956;20.130;2023-04-05T06:05:01;97488.16;;;-0.83;63.55
75013;BME280;63567;49.956;20.130;2023-04-05T06:07:27;97491.34;;;-0.67;63.98
75013;BME280;63567;49.956;20.130;2023-04-05T06:09:52;97485.13;;;-0.64;62.61
75013;BME280;63567;49.956;20.130;2023-04-05T06:12:20;97494.59;;;-0.76;62.47
75013;BME280;63567;49.956;20.130;2023-04-05T06:14:45;97493.06;;;-0.54;62.64
75013;BME280;63567;49.956;20.130;2023-04-05T06:17:10;97496.00;;;-0.35;62.36
75013;BME280;63567;49.956;20.130;2023-04-05T06:19:36;97488.34;;;-0.24;61.85
75013;BME280;63567;49.956;20.130;2023-04-05T06:22:01;97496.16;;;-0.12;61.91
75013;BME280;63567;49.956;20.130;2023-04-05T06:24:26;97492.69;;;0.00;60.61
75013;BME280;63567;49.956;20.130;2023-04-05T06:26:56;97493.28;;;0.04;60.23
75013;BME280;63567;49.956;20.130;2023-04-05T06:29:21;97495.38;;;0.23;59.94
75013;BME280;63567;49.956;20.130;2023-04-05T06:31:47;97493.19;;;0.40;59.22
75013;BME280;63567;49.956;20.130;2023-04-05T06:34:12;97495.72;;;0.65;58.80
75013;BME280;63567;49.956;20.130;2023-04-05T06:36:38;97498.59;;;0.95;58.43
75013;BME280;63567;49.956;20.130;2023-04-05T06:39:03;97492.97;;;1.24;58.94
75013;BME280;63567;49.956;20.130;2023-04-05T06:41:29;97502.25;;;1.49;60.16
75013;BME280;63567;49.956;20.130;2023-04-05T06:43:54;97492.69;;;1.61;58.58
75013;BME280;63567;49.956;20.130;2023-04-05T06:46:20;97490.78;;;1.74;57.10
75013;BME280;63567;49.956;20.130;2023-04-05T06:48:45;97495.06;;;1.96;55.61
75013;BME280;63567;49.956;20.130;2023-04-05T06:51:12;97491.25;;;2.12;54.89
75013;BME280;63567;49.956;20.130;2023-04-05T06:53:37;97494.06;;;2.20;54.64
75013;BME280;63567;49.956;20.130;2023-04-05T06:56:03;97494.97;;;2.30;53.59
75013;BME280;63567;49.956;20.130;2023-04-05T06:58:28;97488.94;;;2.51;54.54
75013;BME280;63567;49.956;20.130;2023-04-05T07:00:54;97498.00;;;2.77;54.08
75013;BME280;63567;49.956;20.130;2023-04-05T07:03:19;97500.09;;;3.04;53.04
75013;BME280;63567;49.956;20.130;2023-04-05T07:05:56;97503.00;;;3.11;53.59
75013;BME280;63567;49.956;20.130;2023-04-05T07:08:23;97497.22;;;3.07;52.60
75013;BME280;63567;49.956;20.130;2023-04-05T07:10:52;97501.69;;;3.26;51.78
75013;BME280;63567;49.956;20.130;2023-04-05T07:13:20;97506.97;;;3.36;51.31
75013;BME280;63567;49.956;20.130;2023-04-05T07:15:45;97495.50;;;3.58;48.86
75013;BME280;63567;49.956;20.130;2023-04-05T07:18:11;97500.22;;;3.74;51.56
75013;BME280;63567;49.956;20.130;2023-04-05T07:20:37;97500.25;;;3.84;51.09
75013;BME280;63567;49.956;20.130;2023-04-05T07:23:03;97499.59;;;4.01;49.79
75013;BME280;63567;49.956;20.130;2023-04-05T07:25:30;97499.59;;;4.30;49.71
75013;BME280;63567;49.956;20.130;2023-04-05T07:27:56;97498.47;;;4.52;46.30
75013;BME280;63567;49.956;20.130;2023-04-05T07:30:21;97498.91;;;4.38;45.85
75013;BME280;63567;49.956;20.130;2023-04-05T07:32:46;97495.59;;;4.46;48.16
75013;BME280;63567;49.956;20.130;2023-04-05T07:35:12;97495.44;;;4.57;47.67
75013;BME280;63567;49.956;20.130;2023-04-05T07:37:37;97499.09;;;4.93;45.71
75013;BME280;63567;49.956;20.130;2023-04-05T07:40:03;97508.84;;;5.01;45.52
75013;BME280;63567;49.956;20.130;2023-04-05T07:42:30;97502.28;;;4.97;42.43
75013;BME280;63567;49.956;20.130;2023-04-05T07:44:56;97502.03;;;4.71;42.56
75013;BME280;63567;49.956;20.130;2023-04-05T07:47:21;97495.72;;;4.64;45.41
75013;BME280;63567;49.956;20.130;2023-04-05T07:49:46;97502.56;;;4.74;46.77
75013;BME280;63567;49.956;20.130;2023-04-05T07:52:12;97500.47;;;4.88;43.25
75013;BME280;63567;49.956;20.130;2023-04-05T07:54:37;97504.16;;;5.14;45.73
75013;BME280;63567;49.956;20.130;2023-04-05T07:57:05;97501.31;;;5.35;46.31
75013;BME280;63567;49.956;20.130;2023-04-05T07:59:31;97499.22;;;5.39;46.97
75013;BME280;63567;49.956;20.130;2023-04-05T08:01:56;97491.53;;;5.65;43.56
75013;BME280;63567;49.956;20.130;2023-04-05T08:04:22;97496.47;;;5.96;44.99
75013;BME280;63567;49.956;20.130;2023-04-05T08:06:50;97496.03;;;6.01;43.20
75013;BME280;63567;49.956;20.130;2023-04-05T08:09:15;97495.69;;;6.13;43.01
75013;BME280;63567;49.956;20.130;2023-04-05T08:11:41;97490.31;;;6.15;43.14
75013;BME280;63567;49.956;20.130;2023-04-05T08:14:07;97497.06;;;6.35;43.82
75013;BME280;63567;49.956;20.130;2023-04-05T08:16:32;97492.13;;;6.76;43.24
75013;BME280;63567;49.956;20.130;2023-04-05T08:18:58;97495.19;;;6.90;42.65
75013;BME280;63567;49.956;20.130;2023-04-05T08:21:23;97496.03;;;6.54;42.89
75013;BME280;63567;49.956;20.130;2023-04-05T08:23:49;97498.88;;;6.61;42.01
75013;BME280;63567;49.956;20.130;2023-04-05T08:26:15;97493.22;;;6.92;40.96
75013;BME280;63567;49.956;20.130;2023-04-05T08:28:40;97496.38;;;7.30;41.97
75013;BME280;63567;49.956;20.130;2023-04-05T08:31:06;97487.53;;;7.57;37.49
75013;BME280;63567;49.956;20.130;2023-04-05T08:33:31;97489.41;;;7.81;38.50
75013;BME280;63567;49.956;20.130;2023-04-05T08:35:57;97492.34;;;7.44;40.89
75013;BME280;63567;49.956;20.130;2023-04-05T08:38:22;97496.19;;;7.57;42.68
75013;BME280;63567;49.956;20.130;2023-04-05T08:40:48;97491.31;;;7.71;42.51
75013;BME280;63567;49.956;20.130;2023-04-05T08:46:16;97493.38;;;8.01;40.60
75013;BME280;63567;49.956;20.130;2023-04-05T08:48:42;97492.09;;;8.06;36.88
75013;BME280;63567;49.956;20.130;2023-04-05T08:51:08;97487.00;;;7.53;38.98
75013;BME280;63567;49.956;20.130;2023-04-05T08:53:34;97487.16;;;7.17;39.16
75013;BME280;63567;49.956;20.130;2023-04-05T08:56:01;97482.84;;;6.82;39.42
75013;BME280;63567;49.956;20.130;2023-04-05T08:58:27;97485.19;;;6.67;40.29
75013;BME280;63567;49.956;20.130;2023-04-05T09:00:54;97473.97;;;6.75;39.70
75013;BME280;63567;49.956;20.130;2023-04-05T09:03:22;97481.81;;;7.01;40.78
75013;BME280;63567;49.956;20.130;2023-04-05T09:05:49;97473.31;;;7.68;40.97
75013;BME280;63567;49.956;20.130;2023-04-05T09:08:16;97470.28;;;8.21;36.29
75013;BME280;63567;49.956;20.130;2023-04-05T09:10:41;97476.06;;;8.91;38.44
75013;BME280;63567;49.956;20.130;2023-04-05T09:13:07;97471.84;;;9.45;37.53
75013;BME280;63567;49.956;20.130;2023-04-05T09:15:35;97474.25;;;9.55;36.65
75013;BME280;63567;49.956;20.130;2023-04-05T09:18:00;97480.28;;;9.16;40.05
75013;BME280;63567;49.956;20.130;2023-04-05T09:20:26;97481.63;;;8.38;38.61
75013;BME280;63567;49.956;20.130;2023-04-05T09:22:51;97481.25;;;8.09;36.33
75013;BME280;63567;49.956;20.130;2023-04-05T09:25:38;97478.66;;;8.17;35.96
75013;BME280;63567;49.956;20.130;2023-04-05T09:28:05;97472.94;;;8.13;38.08
75013;BME280;63567;49.956;20.130;2023-04-05T09:30:32;97476.34;;;8.06;37.63
75013;BME280;63567;49.956;20.130;2023-04-05T09:32:58;97480.25;;;7.93;39.34
75013;BME280;63567;49.956;20.130;2023-04-05T09:35:28;97482.72;;;7.95;37.51
75013;BME280;63567;49.956;20.130;2023-04-05T09:37:56;97481.31;;;7.66;37.23
75013;BME280;63567;49.956;20.130;2023-04-05T09:40:22;97476.03;;;7.24;36.63
75013;BME280;63567;49.956;20.130;2023-04-05T09:42:48;97482.78;;;7.00;37.20
75013;BME280;63567;49.956;20.130;2023-04-05T09:45:14;97473.84;;;6.85;39.34
75013;BME280;63567;49.956;20.130;2023-04-05T09:47:40;97473.09;;;6.48;40.81
75013;BME280;63567;49.956;20.130;2023-04-05T09:52:41;97485.53;;;5.27;44.10
75013;BME280;63567;49.956;20.130;2023-04-05T09:55:07;97489.09;;;5.36;44.12
75013;BME280;63567;49.956;20.130;2023-04-05T09:57:35;97489.44;;;5.13;44.34
75013;BME280;63567;49.956;20.130;2023-04-05T10:00:02;97481.00;;;4.82;46.12
75013;BME280;63567;49.956;20.130;2023-04-05T10:02:37;97492.66;;;4.98;46.16
75013;BME280;63567;49.956;20.130;2023-04-05T10:05:05;97489.72;;;5.01;45.49
75013;BME280;63567;49.956;20.130;2023-04-05T10:07:31;97488.50;;;5.05;46.42
75013;BME280;63567;49.956;20.130;2023-04-05T10:09:57;97483.56;;;4.92;46.33
75013;BME280;63567;49.956;20.130;2023-04-05T10:12:26;97480.34;;;5.18;46.70
75013;BME280;63567;49.956;20.130;2023-04-05T10:14:53;97477.00;;;6.26;45.10
75013;BME280;63567;49.956;20.130;2023-04-05T10:17:42;97469.31;;;7.55;43.37
75013;BME280;63567;49.956;20.130;2023-04-05T10:20:14;97466.19;;;8.27;39.09
75013;BME280;63567;49.956;20.130;2023-04-05T10:22:55;97458.00;;;8.38;38.26
75013;BME280;63567;49.956;20.130;2023-04-05T10:25:26;97467.31;;;9.15;39.02
75013;BME280;63567;49.956;20.130;2023-04-05T10:27:55;97465.59;;;10.09;38.36
75013;BME280;63567;49.956;20.130;2023-04-05T10:30:24;97455.38;;;10.37;38.32
75013;BME280;63567;49.956;20.130;2023-04-05T10:33:06;97456.44;;;10.89;35.68
75013;BME280;63567;49.956;20.130;2023-04-05T10:36:03;97459.19;;;10.35;34.57
75013;BME280;63567;49.956;20.130;2023-04-05T10:38:45;97455.94;;;9.70;34.41
75013;BME280;63567;49.956;20.130;2023-04-05T10:41:13;97460.94;;;9.01;35.10
75013;BME280;63567;49.956;20.130;2023-04-05T10:43:39;97464.28;;;8.62;36.40
75013;BME280;63567;49.956;20.130;2023-04-05T10:46:06;97455.94;;;7.75;35.07
75013;BME280;63567;49.956;20.130;2023-04-05T10:51:11;97455.22;;;7.14;40.11
75013;BME280;63567;49.956;20.130;2023-04-05T10:53:38;97455.38;;;7.12;40.46
75013;BME280;63567;49.956;20.130;2023-04-05T10:56:05;97461.16;;;6.72;40.66
75013;BME280;63567;49.956;20.130;2023-04-05T10:58:31;97458.69;;;6.44;39.71
75013;BME280;63567;49.956;20.130;2023-04-05T11:00:58;97452.75;;;6.60;38.89
75013;BME280;63567;49.956;20.130;2023-04-05T11:03:51;97449.25;;;6.51;38.83
75013;BME280;63567;49.956;20.130;2023-04-05T11:06:23;97447.75;;;6.49;38.05
75013;BME280;63567;49.956;20.130;2023-04-05T11:09:18;97453.59;;;6.07;39.94
75013;BME280;63567;49.956;20.130;2023-04-05T11:11:49;97450.03;;;5.62;38.39
75013;BME280;63567;49.956;20.130;2023-04-05T11:16:49;97452.88;;;5.69;41.99
75013;BME280;63567;49.956;20.130;2023-04-05T11:19:17;97453.94;;;5.48;42.97
75013;BME280;63567;49.956;20.130;2023-04-05T11:21:43;97463.44;;;5.22;44.35
75013;BME280;63567;49.956;20.130;2023-04-05T11:24:09;97457.69;;;5.08;45.34
75013;BME280;63567;49.956;20.130;2023-04-05T11:29:07;97462.16;;;5.26;44.84
75013;BME280;63567;49.956;20.130;2023-04-05T11:31:32;97458.25;;;5.95;45.80
75013;BME280;63567;49.956;20.130;2023-04-05T11:33:58;97449.53;;;7.27;40.35
75013;BME280;63567;49.956;20.130;2023-04-05T11:41:43;97444.72;;;8.73;34.17
75013;BME280;63567;49.956;20.130;2023-04-05T11:44:14;97445.47;;;7.75;35.51
75013;BME280;63567;49.956;20.130;2023-04-05T11:46:44;97444.34;;;7.94;38.79
75013;BME280;63567;49.956;20.130;2023-04-05T11:49:11;97441.38;;;7.89;38.50
75013;BME280;63567;49.956;20.130;2023-04-05T11:51:39;97442.09;;;7.48;39.59
75013;BME280;63567;49.956;20.130;2023-04-05T11:54:09;97438.78;;;6.77;41.62
75013;BME280;63567;49.956;20.130;2023-04-05T11:56:35;97445.56;;;7.14;42.14
75013;BME280;63567;49.956;20.130;2023-04-05T11:59:02;97440.13;;;7.50;40.45
75013;BME280;63567;49.956;20.130;2023-04-05T12:01:27;97444.22;;;8.20;38.06
75013;BME280;63567;49.956;20.130;2023-04-05T12:03:54;97436.03;;;8.31;37.22
75013;BME280;63567;49.956;20.130;2023-04-05T12:06:22;97438.31;;;8.18;37.63
75013;BME280;63567;49.956;20.130;2023-04-05T12:08:48;97447.63;;;7.88;38.01
75013;BME280;63567;49.956;20.130;2023-04-05T12:11:29;97430.44;;;7.43;39.50
75013;BME280;63567;49.956;20.130;2023-04-05T12:13:59;97434.81;;;6.99;39.05
75013;BME280;63567;49.956;20.130;2023-04-05T12:16:26;97441.00;;;6.90;40.77
75013;BME280;63567;49.956;20.130;2023-04-05T12:18:53;97439.75;;;6.50;42.13
75013;BME280;63567;49.956;20.130;2023-04-05T12:21:19;97439.19;;;6.21;42.59
75013;BME280;63567;49.956;20.130;2023-04-05T12:23:45;97443.59;;;6.20;41.69
75013;BME280;63567;49.956;20.130;2023-04-05T12:26:10;97435.38;;;5.97;42.93
75013;BME280;63567;49.956;20.130;2023-04-05T12:31:33;97444.91;;;5.88;43.58
75013;BME280;63567;49.956;20.130;2023-04-05T12:33:59;97438.91;;;5.78;43.25
75013;BME280;63567;49.956;20.130;2023-04-05T12:36:26;97429.41;;;6.67;44.85
75013;BME280;63567;49.956;20.130;2023-04-05T12:38:53;97431.06;;;8.03;41.89
75013;BME280;63567;49.956;20.130;2023-04-05T12:41:26;97430.59;;;9.38;38.86
75013;BME280;63567;49.956;20.130;2023-04-05T12:43:52;97426.75;;;10.11;35.23
75013;BME280;63567;49.956;20.130;2023-04-05T12:46:46;97428.03;;;10.61;32.25
75013;BME280;63567;49.956;20.130;2023-04-05T12:49:13;97426.06;;;9.86;32.79
75013;BME280;63567;49.956;20.130;2023-04-05T12:54:13;97433.00;;;9.00;35.30
75013;BME280;63567;49.956;20.130;2023-04-05T12:56:40;97434.56;;;8.53;35.01
75013;BME280;63567;49.956;20.130;2023-04-05T12:59:06;97428.97;;;8.32;36.17
75013;BME280;63567;49.956;20.130;2023-04-05T13:01:32;97429.44;;;8.02;37.32
75013;BME280;63567;49.956;20.130;2023-04-05T13:04:00;97431.72;;;7.81;38.15
75013;BME280;63567;49.956;20.130;2023-04-05T13:06:26;97432.91;;;7.52;39.75
75013;BME280;63567;49.956;20.130;2023-04-05T13:08:52;97425.97;;;7.27;38.84
75013;BME280;63567;49.956;20.130;2023-04-05T13:11:18;97427.72;;;7.18;39.49
75013;BME280;63567;49.956;20.130;2023-04-05T13:13:43;97429.50;;;7.17;39.90
75013;BME280;63567;49.956;20.130;2023-04-05T13:16:08;97436.44;;;7.27;39.64
75013;BME280;63567;49.956;20.130;2023-04-05T13:18:34;97430.03;;;7.72;39.12
75013;BME280;63567;49.956;20.130;2023-04-05T13:20:59;97427.00;;;8.26;37.14
75013;BME280;63567;49.956;20.130;2023-04-05T13:23:29;97423.88;;;8.38;36.29
75013;BME280;63567;49.956;20.130;2023-04-05T13:25:54;97427.34;;;8.47;34.89
75013;BME280;63567;49.956;20.130;2023-04-05T13:28:19;97423.94;;;9.11;37.31